sensor_id;sensor_type;location;lat;lon;timestamp;temperature;humidity
3921;DHT22;1975;49.356;6.816;2023-05-20T00:00:13;15.50;99.90
3921;DHT22;1975;49.356;6.816;2023-05-20T00:02:38;15.50;99.90
3921;DHT22;1975;49.356;6.816;2023-05-20T00:05:04;15.50;99.90
3921;DHT22;1975;49.356;6.816;2023-05-20T00:07:30;15.50;99.90
3921;DHT22;1975;49.356;6.816;2023-05-20T00:09:55;15.50;99.90
3921;DHT22;1975;49.356;6.816;2023-05-20T00:12:21;15.50;99.90
3921;DHT22;1975;49.356;6.816;2023-05-20T00:14:46;15.50;99.90
3921;DHT22;1975;49.356;6.816;2023-05-20T00:17:12;15.50;99.90
3921;DHT22;1975;49.356;6.816;2023-05-20T00:19:37;15.50;99.90
3921;DHT22;1975;49.356;6.816;2023-05-20T00:22:03;15.40;99.90
3921;DHT22;1975;49.356;6.816;2023-05-20T00:24:29;15.50;99.90
3921;DHT22;1975;49.356;6.816;2023-05-20T00:26:54;15.40;99.90
3921;DHT22;1975;49.356;6.816;2023-05-20T00:29:20;15.40;99.90
3921;DHT22;1975;49.356;6.816;2023-05-20T00:31:45;15.40;99.90
3921;DHT22;1975;49.356;6.816;2023-05-20T00:34:11;15.40;99.90
3921;DHT22;1975;49.356;6.816;2023-05-20T00:36:36;15.40;99.90
3921;DHT22;1975;49.356;6.816;2023-05-20T00:39:02;15.40;99.90
3921;DHT22;1975;49.356;6.816;2023-05-20T00:41:28;15.40;99.90
3921;DHT22;1975;49.356;6.816;2023-05-20T00:43:53;15.40;99.90
3921;DHT22;1975;49.356;6.816;2023-05-20T00:46:19;15.40;99.90
3921;DHT22;1975;49.356;6.816;2023-05-20T00:48:45;15.40;99.90
3921;DHT22;1975;49.356;6.816;2023-05-20T00:51:10;15.40;99.90
3921;DHT22;1975;49.356;6.816;2023-05-20T00:53:37;15.40;99.90
3921;DHT22;1975;49.356;6.816;2023-05-20T00:56:03;15.40;99.90
3921;DHT22;1975;49.356;6.816;2023-05-20T00:58:28;15.40;99.90
3921;DHT22;1975;49.356;6.816;2023-05-20T01:00:54;15.40;99.90
3921;DHT22;1975;49.356;6.816;2023-05-20T01:03:19;15.40;99.90
3921;DHT22;1975;49.356;6.816;2023-05-20T01:05:45;15.40;99.90
3921;DHT22;1975;49.356;6.816;2023-05-20T01:08:10;15.30;99.90
3921;DHT22;1975;49.356;6.816;2023-05-20T01:10:37;15.30;99.90
3921;DHT22;1975;49.356;6.816;2023-05-20T01:13:04;15.40;99.90
3921;DHT22;1975;49.356;6.816;2023-05-20T01:15:32;15.30;99.90
3921;DHT22;1975;49.356;6.816;2023-05-20T01:17:59;15.40;99.90
3921;DHT22;1975;49.356;6.816;2023-05-20T01:20:25;15.30;99.90
3921;DHT22;1975;49.356;6.816;2023-05-20T01:22:52;15.30;99.90
3921;DHT22;1975;49.356;6.816;2023-05-20T01:25:18;15.30;99.90
3921;DHT22;1975;49.356;6.816;2023-05-20T01:27:44;15.30;99.90
3921;DHT22;1975;49.356;6.816;2023-05-20T01:30:10;15.30;99.90
3921;DHT22;1975;49.356;6.816;2023-05-20T01:32:40;15.30;99.90
3921;DHT22;1975;49.356;6.816;2023-05-20T01:35:07;15.30;99.90
3921;DHT22;1975;49.356;6.816;2023-05-20T01:37:33;15.30;99.90
3921;DHT22;1975;49.356;6.816;2023-05-20T01:40:00;15.30;99.90
3921;DHT22;1975;49.356;6.816;2023-05-20T01:42:27;15.30;99.90
3921;DHT22;1975;49.356;6.816;2023-05-20T01:44:53;15.30;99.90
3921;DHT22;1975;49.356;6.816;2023-05-20T01:47:18;15.20;99.90
3921;DHT22;1975;49.356;6.816;2023-05-20T01:49:44;15.20;99.90
3921;DHT22;1975;49.356;6.816;2023-05-20T01:52:10;15.20;99.90
3921;DHT22;1975;49.356;6.816;2023-05-20T01:54:36;15.20;99.90
3921;DHT22;1975;49.356;6.816;2023-05-20T01:57:01;15.20;99.90
3921;DHT22;1975;49.356;6.816;2023-05-20T01:59:27;15.20;99.90
3921;DHT22;1975;49.356;6.816;2023-05-20T02:01:52;15.20;99.90
3921;DHT22;1975;49.356;6.816;2023-05-20T02:04:18;15.20;99.90
3921;DHT22;1975;49.356;6.816;2023-05-20T02:06:43;15.20;99.90
3921;DHT22;1975;49.356;6.816;2023-05-20T02:09:09;15.20;99.90
3921;DHT22;1975;49.356;6.816;2023-05-20T02:11:35;15.20;99.90
3921;DHT22;1975;49.356;6.816;2023-05-20T02:14:01;15.20;99.90
3921;DHT22;1975;49.356;6.816;2023-05-20T02:16:26;15.20;99.90
3921;DHT22;1975;49.356;6.816;2023-05-20T02:18:51;15.20;99.90
3921;DHT22;1975;49.356;6.816;2023-05-20T02:21:17;15.20;99.90
3921;DHT22;1975;49.356;6.816;2023-05-20T02:23:43;15.20;99.90
3921;DHT22;1975;49.356;6.816;2023-05-20T02:26:08;15.30;99.90
3921;DHT22;1975;49.356;6.816;2023-05-20T02:28:33;15.20;99.90
3921;DHT22;1975;49.356;6.816;2023-05-20T02:30:59;15.20;99.90
3921;DHT22;1975;49.356;6.816;2023-05-20T02:33:25;15.20;99.90
3921;DHT22;1975;49.356;6.816;2023-05-20T02:35:53;15.20;99.90
3921;DHT22;1975;49.356;6.816;2023-05-20T02:38:18;15.20;99.90
3921;DHT22;1975;49.356;6.816;2023-05-20T02:40:44;15.20;99.90
3921;DHT22;1975;49.356;6.816;2023-05-20T02:43:09;15.20;99.90
3921;DHT22;1975;49.356;6.816;2023-05-20T02:45:35;15.20;99.90
3921;DHT22;1975;49.356;6.816;2023-05-20T02:48:00;15.20;99.90
3921;DHT22;1975;49.356;6.816;2023-05-20T02:50:26;15.10;99.90
3921;DHT22;1975;49.356;6.816;2023-05-20T02:52:51;15.10;99.90
3921;DHT22;1975;49.356;6.816;2023-05-20T02:55:17;15.10;99.90
3921;DHT22;1975;49.356;6.816;2023-05-20T02:57:42;15.10;99.90
3921;DHT22;1975;49.356;6.816;2023-05-20T03:00:08;15.10;99.90
3921;DHT22;1975;49.356;6.816;2023-05-20T03:02:37;15.10;99.90
3921;DHT22;1975;49.356;6.816;2023-05-20T03:05:03;15.10;99.90
3921;DHT22;1975;49.356;6.816;2023-05-20T03:07:29;15.10;99.90
3921;DHT22;1975;49.356;6.816;2023-05-20T03:09:58;15.10;99.90
3921;DHT22;1975;49.356;6.816;2023-05-20T03:12:24;15.10;99.90
3921;DHT22;1975;49.356;6.816;2023-05-20T03:14:50;15.10;99.90
3921;DHT22;1975;49.356;6.816;2023-05-20T03:17:19;15.10;99.90
3921;DHT22;1975;49.356;6.816;2023-05-20T03:19:45;15.10;99.90
3921;DHT22;1975;49.356;6.816;2023-05-20T03:22:11;15.10;99.90
3921;DHT22;1975;49.356;6.816;2023-05-20T03:24:36;15.10;99.90
3921;DHT22;1975;49.356;6.816;2023-05-20T03:27:02;15.10;99.90
3921;DHT22;1975;49.356;6.816;2023-05-20T03:29:28;15.10;99.90
3921;DHT22;1975;49.356;6.816;2023-05-20T03:31:53;15.10;99.90
3921;DHT22;1975;49.356;6.816;2023-05-20T03:34:18;15.10;99.90
3921;DHT22;1975;49.356;6.816;2023-05-20T03:36:44;15.10;99.90
3921;DHT22;1975;49.356;6.816;2023-05-20T03:39:10;15.10;99.90
3921;DHT22;1975;49.356;6.816;2023-05-20T03:41:35;15.10;99.90
3921;DHT22;1975;49.356;6.816;2023-05-20T03:44:02;15.10;99.90
3921;DHT22;1975;49.356;6.816;2023-05-20T03:46:27;15.00;99.90
3921;DHT22;1975;49.356;6.816;2023-05-20T03:48:53;15.10;99.90
3921;DHT22;1975;49.356;6.816;2023-05-20T03:51:18;15.00;99.90
3921;DHT22;1975;49.356;6.816;2023-05-20T03:53:43;15.00;99.90
3921;DHT22;1975;49.356;6.816;2023-05-20T03:56:09;15.10;99.90
3921;DHT22;1975;49.356;6.816;2023-05-20T03:58:34;15.00;99.90
3921;DHT22;1975;49.356;6.816;2023-05-20T04:01:02;15.00;99.90
3921;DHT22;1975;49.356;6.816;2023-05-20T04:03:28;15.00;99.90
3921;DHT22;1975;49.356;6.816;2023-05-20T04:05:54;15.00;99.90
3921;DHT22;1975;49.356;6.816;2023-05-20T04:08:19;15.00;99.90
3921;DHT22;1975;49.356;6.816;2023-05-20T04:10:46;15.00;99.90
3921;DHT22;1975;49.356;6.816;2023-05-20T04:13:11;15.00;99.90
3921;DHT22;1975;49.356;6.816;2023-05-20T04:15:37;15.00;99.90
3921;DHT22;1975;49.356;6.816;2023-05-20T04:18:05;15.00;99.90
3921;DHT22;1975;49.356;6.816;2023-05-20T04:20:31;14.90;99.90
3921;DHT22;1975;49.356;6.816;2023-05-20T04:22:57;14.90;99.90
3921;DHT22;1975;49.356;6.816;2023-05-20T04:25:22;14.90;99.90
3921;DHT22;1975;49.356;6.816;2023-05-20T04:27:48;14.90;99.90
3921;DHT22;1975;49.356;6.816;2023-05-20T04:30:14;14.90;99.90
3921;DHT22;1975;49.356;6.816;2023-05-20T04:32:42;14.90;99.90
3921;DHT22;1975;49.356;6.816;2023-05-20T04:35:07;14.90;99.90
3921;DHT22;1975;49.356;6.816;2023-05-20T04:37:35;14.90;99.90
3921;DHT22;1975;49.356;6.816;2023-05-20T04:40:01;14.90;99.90
3921;DHT22;1975;49.356;6.816;2023-05-20T04:42:27;14.90;99.90
3921;DHT22;1975;49.356;6.816;2023-05-20T04:44:54;14.90;99.90
3921;DHT22;1975;49.356;6.816;2023-05-20T04:47:19;14.80;99.90
3921;DHT22;1975;49.356;6.816;2023-05-20T04:49:44;14.90;99.90
3921;DHT22;1975;49.356;6.816;2023-05-20T04:52:10;14.90;99.90
3921;DHT22;1975;49.356;6.816;2023-05-20T04:54:35;14.90;99.90
3921;DHT22;1975;49.356;6.816;2023-05-20T04:57:01;14.90;99.90
3921;DHT22;1975;49.356;6.816;2023-05-20T04:59:27;14.90;99.90
3921;DHT22;1975;49.356;6.816;2023-05-20T05:01:52;14.90;99.90
3921;DHT22;1975;49.356;6.816;2023-05-20T05:04:17;14.90;99.90
3921;DHT22;1975;49.356;6.816;2023-05-20T05:06:43;14.90;99.90
3921;DHT22;1975;49.356;6.816;2023-05-20T05:09:08;14.90;99.90
3921;DHT22;1975;49.356;6.816;2023-05-20T05:11:34;14.90;99.90
3921;DHT22;1975;49.356;6.816;2023-05-20T05:13:59;14.90;99.90
3921;DHT22;1975;49.356;6.816;2023-05-20T05:16:25;14.90;99.90
3921;DHT22;1975;49.356;6.816;2023-05-20T05:18:50;15.00;99.90
3921;DHT22;1975;49.356;6.816;2023-05-20T05:21:16;14.90;99.90
3921;DHT22;1975;49.356;6.816;2023-05-20T05:23:41;14.90;99.90
3921;DHT22;1975;49.356;6.816;2023-05-20T05:26:07;14.90;99.90
3921;DHT22;1975;49.356;6.816;2023-05-20T05:28:32;14.90;99.90
3921;DHT22;1975;49.356;6.816;2023-05-20T05:30:58;14.90;99.90
3921;DHT22;1975;49.356;6.816;2023-05-20T05:33:24;14.90;99.90
3921;DHT22;1975;49.356;6.816;2023-05-20T05:35:49;15.00;99.90
3921;DHT22;1975;49.356;6.816;2023-05-20T05:38:15;15.00;99.90
3921;DHT22;1975;49.356;6.816;2023-05-20T05:40:41;15.00;99.90
3921;DHT22;1975;49.356;6.816;2023-05-20T05:43:06;15.00;99.90
3921;DHT22;1975;49.356;6.816;2023-05-20T05:45:32;15.00;99.90
3921;DHT22;1975;49.356;6.816;2023-05-20T05:47:57;15.00;99.90
3921;DHT22;1975;49.356;6.816;2023-05-20T05:50:23;15.00;99.90
3921;DHT22;1975;49.356;6.816;2023-05-20T05:52:48;15.00;99.90
3921;DHT22;1975;49.356;6.816;2023-05-20T05:55:14;15.00;99.90
3921;DHT22;1975;49.356;6.816;2023-05-20T05:57:39;15.00;99.90
3921;DHT22;1975;49.356;6.816;2023-05-20T06:00:05;15.10;99.90
3921;DHT22;1975;49.356;6.816;2023-05-20T06:02:31;15.10;99.90
3921;DHT22;1975;49.356;6.816;2023-05-20T06:05:03;15.10;99.90
3921;DHT22;1975;49.356;6.816;2023-05-20T06:07:28;15.10;99.90
3921;DHT22;1975;49.356;6.816;2023-05-20T06:09:54;15.10;99.90
3921;DHT22;1975;49.356;6.816;2023-05-20T06:12:19;15.10;99.90
3921;DHT22;1975;49.356;6.816;2023-05-20T06:14:45;15.10;99.90
3921;DHT22;1975;49.356;6.816;2023-05-20T06:17:11;15.20;99.90
3921;DHT22;1975;49.356;6.816;2023-05-20T06:19:36;15.20;99.90
3921;DHT22;1975;49.356;6.816;2023-05-20T06:22:02;15.20;99.90
3921;DHT22;1975;49.356;6.816;2023-05-20T06:24:27;15.20;99.90
3921;DHT22;1975;49.356;6.816;2023-05-20T06:26:53;15.20;99.90
3921;DHT22;1975;49.356;6.816;2023-05-20T06:29:18;15.20;99.90
3921;DHT22;1975;49.356;6.816;2023-05-20T06:31:44;15.20;99.90
3921;DHT22;1975;49.356;6.816;2023-05-20T06:34:09;15.20;99.90
3921;DHT22;1975;49.356;6.816;2023-05-20T06:36:35;15.20;99.90
3921;DHT22;1975;49.356;6.816;2023-05-20T06:39:00;15.20;99.90
3921;DHT22;1975;49.356;6.816;2023-05-20T06:41:26;15.30;99.90
3921;DHT22;1975;49.356;6.816;2023-05-20T06:43:51;15.30;99.90
3921;DHT22;1975;49.356;6.816;2023-05-20T06:46:17;15.30;99.90
3921;DHT22;1975;49.356;6.816;2023-05-20T06:48:42;15.30;99.90
3921;DHT22;1975;49.356;6.816;2023-05-20T06:51:08;15.30;99.90
3921;DHT22;1975;49.356;6.816;2023-05-20T06:53:33;15.30;99.90
3921;DHT22;1975;49.356;6.816;2023-05-20T06:55:59;15.40;99.90
3921;DHT22;1975;49.356;6.816;2023-05-20T06:58:25;15.30;99.90
3921;DHT22;1975;49.356;6.816;2023-05-20T07:00:50;15.30;99.90
3921;DHT22;1975;49.356;6.816;2023-05-20T07:03:16;15.40;99.90
3921;DHT22;1975;49.356;6.816;2023-05-20T07:05:41;15.40;99.90
3921;DHT22;1975;49.356;6.816;2023-05-20T07:08:07;15.40;99.90
3921;DHT22;1975;49.356;6.816;2023-05-20T07:10:33;15.40;99.90
3921;DHT22;1975;49.356;6.816;2023-05-20T07:12:58;15.50;99.90
3921;DHT22;1975;49.356;6.816;2023-05-20T07:15:24;15.50;99.90
3921;DHT22;1975;49.356;6.816;2023-05-20T07:17:49;15.50;99.90
3921;DHT22;1975;49.356;6.816;2023-05-20T07:20:15;15.60;99.90
3921;DHT22;1975;49.356;6.816;2023-05-20T07:22:40;15.70;99.90
3921;DHT22;1975;49.356;6.816;2023-05-20T07:25:06;15.70;99.90
3921;DHT22;1975;49.356;6.816;2023-05-20T07:27:31;15.70;99.90
3921;DHT22;1975;49.356;6.816;2023-05-20T07:29:57;15.70;99.90
3921;DHT22;1975;49.356;6.816;2023-05-20T07:32:22;15.80;99.90
3921;DHT22;1975;49.356;6.816;2023-05-20T07:34:48;15.90;99.90
3921;DHT22;1975;49.356;6.816;2023-05-20T07:37:13;15.90;99.90
3921;DHT22;1975;49.356;6.816;2023-05-20T07:39:40;15.90;99.90
3921;DHT22;1975;49.356;6.816;2023-05-20T07:42:05;15.90;99.90
3921;DHT22;1975;49.356;6.816;2023-05-20T07:44:31;15.90;99.90
3921;DHT22;1975;49.356;6.816;2023-05-20T07:46:56;15.90;99.90
3921;DHT22;1975;49.356;6.816;2023-05-20T07:49:22;15.90;99.90
3921;DHT22;1975;49.356;6.816;2023-05-20T07:51:47;15.90;99.90
3921;DHT22;1975;49.356;6.816;2023-05-20T07:54:14;15.90;99.90
3921;DHT22;1975;49.356;6.816;2023-05-20T07:56:40;15.90;99.90
3921;DHT22;1975;49.356;6.816;2023-05-20T07:59:05;15.90;99.90
3921;DHT22;1975;49.356;6.816;2023-05-20T08:01:31;15.90;99.90
3921;DHT22;1975;49.356;6.816;2023-05-20T08:03:56;15.90;99.90
3921;DHT22;1975;49.356;6.816;2023-05-20T08:06:22;15.90;99.90
3921;DHT22;1975;49.356;6.816;2023-05-20T08:08:51;16.00;99.90
3921;DHT22;1975;49.356;6.816;2023-05-20T08:11:18;16.00;99.90
3921;DHT22;1975;49.356;6.816;2023-05-20T08:13:43;16.00;99.90
3921;DHT22;1975;49.356;6.816;2023-05-20T08:16:09;16.00;99.90
3921;DHT22;1975;49.356;6.816;2023-05-20T08:18:34;16.00;99.90
3921;DHT22;1975;49.356;6.816;2023-05-20T08:21:06;16.10;99.90
3921;DHT22;1975;49.356;6.816;2023-05-20T08:23:35;16.10;99.90
3921;DHT22;1975;49.356;6.816;2023-05-20T08:26:00;16.10;99.90
3921;DHT22;1975;49.356;6.816;2023-05-20T08:28:29;16.10;99.90
3921;DHT22;1975;49.356;6.816;2023-05-20T08:30:55;16.10;99.90
3921;DHT22;1975;49.356;6.816;2023-05-20T08:33:22;16.10;99.90
3921;DHT22;1975;49.356;6.816;2023-05-20T08:35:47;16.20;99.90
3921;DHT22;1975;49.356;6.816;2023-05-20T08:38:13;16.20;99.90
3921;DHT22;1975;49.356;6.816;2023-05-20T08:40:39;16.30;99.90
3921;DHT22;1975;49.356;6.816;2023-05-20T08:43:04;16.30;99.90
3921;DHT22;1975;49.356;6.816;2023-05-20T08:45:30;16.30;99.90
3921;DHT22;1975;49.356;6.816;2023-05-20T08:47:56;16.50;99.90
3921;DHT22;1975;49.356;6.816;2023-05-20T08:50:22;16.60;99.90
3921;DHT22;1975;49.356;6.816;2023-05-20T08:52:48;16.70;99.90
3921;DHT22;1975;49.356;6.816;2023-05-20T08:55:18;16.80;99.90
3921;DHT22;1975;49.356;6.816;2023-05-20T08:57:48;16.90;99.90
3921;DHT22;1975;49.356;6.816;2023-05-20T09:00:14;16.90;99.90
3921;DHT22;1975;49.356;6.816;2023-05-20T09:02:41;17.00;99.90
3921;DHT22;1975;49.356;6.816;2023-05-20T09:05:08;17.00;99.90
3921;DHT22;1975;49.356;6.816;2023-05-20T09:07:35;17.20;99.90
3921;DHT22;1975;49.356;6.816;2023-05-20T09:10:00;17.20;99.90
3921;DHT22;1975;49.356;6.816;2023-05-20T09:12:26;17.00;99.90
3921;DHT22;1975;49.356;6.816;2023-05-20T09:14:51;16.90;99.90
3921;DHT22;1975;49.356;6.816;2023-05-20T09:17:17;16.80;99.90
3921;DHT22;1975;49.356;6.816;2023-05-20T09:19:42;16.70;99.90
3921;DHT22;1975;49.356;6.816;2023-05-20T09:22:08;16.80;99.90
3921;DHT22;1975;49.356;6.816;2023-05-20T09:24:33;16.70;99.90
3921;DHT22;1975;49.356;6.816;2023-05-20T09:26:59;16.80;99.90
3921;DHT22;1975;49.356;6.816;2023-05-20T09:29:24;16.80;99.90
3921;DHT22;1975;49.356;6.816;2023-05-20T09:31:50;16.80;99.90
3921;DHT22;1975;49.356;6.816;2023-05-20T09:34:16;16.80;99.90
3921;DHT22;1975;49.356;6.816;2023-05-20T09:36:42;16.80;99.90
3921;DHT22;1975;49.356;6.816;2023-05-20T09:39:11;16.80;99.90
3921;DHT22;1975;49.356;6.816;2023-05-20T09:41:43;16.90;99.90
3921;DHT22;1975;49.356;6.816;2023-05-20T09:44:11;17.00;99.90
3921;DHT22;1975;49.356;6.816;2023-05-20T09:46:37;17.10;99.90
3921;DHT22;1975;49.356;6.816;2023-05-20T09:49:03;17.00;99.90
3921;DHT22;1975;49.356;6.816;2023-05-20T09:51:30;17.00;99.90
3921;DHT22;1975;49.356;6.816;2023-05-20T09:53:57;17.00;99.90
3921;DHT22;1975;49.356;6.816;2023-05-20T09:56:23;17.00;99.90
3921;DHT22;1975;49.356;6.816;2023-05-20T09:58:49;17.10;99.90
3921;DHT22;1975;49.356;6.816;2023-05-20T10:01:15;17.10;99.90
3921;DHT22;1975;49.356;6.816;2023-05-20T10:03:41;17.10;99.90
3921;DHT22;1975;49.356;6.816;2023-05-20T10:08:41;17.10;99.90
3921;DHT22;1975;49.356;6.816;2023-05-20T10:14:17;17.10;99.90
3921;DHT22;1975;49.356;6.816;2023-05-20T10:16:51;17.10;99.90
3921;DHT22;1975;49.356;6.816;2023-05-20T10:19:33;17.10;99.90
3921;DHT22;1975;49.356;6.816;2023-05-20T10:22:00;17.20;99.90
3921;DHT22;1975;49.356;6.816;2023-05-20T10:24:33;17.20;99.90
3921;DHT22;1975;49.356;6.816;2023-05-20T10:27:00;17.20;99.90
3921;DHT22;1975;49.356;6.816;2023-05-20T10:29:27;17.20;99.90
3921;DHT22;1975;49.356;6.816;2023-05-20T10:31:52;17.20;99.90
3921;DHT22;1975;49.356;6.816;2023-05-20T10:34:19;17.20;99.90
3921;DHT22;1975;49.356;6.816;2023-05-20T10:37:05;17.20;99.90
3921;DHT22;1975;49.356;6.816;2023-05-20T10:39:30;17.30;99.90
3921;DHT22;1975;49.356;6.816;2023-05-20T10:42:08;17.30;99.90
3921;DHT22;1975;49.356;6.816;2023-05-20T10:44:41;17.30;99.90
3921;DHT22;1975;49.356;6.816;2023-05-20T10:47:07;17.30;99.90
3921;DHT22;1975;49.356;6.816;2023-05-20T10:49:33;17.40;99.90
3921;DHT22;1975;49.356;6.816;2023-05-20T10:51:59;17.40;99.90
3921;DHT22;1975;49.356;6.816;2023-05-20T10:54:25;17.50;99.90
3921;DHT22;1975;49.356;6.816;2023-05-20T10:56:51;17.50;99.90
3921;DHT22;1975;49.356;6.816;2023-05-20T10:59:18;17.50;99.90
3921;DHT22;1975;49.356;6.816;2023-05-20T11:01:44;17.50;99.90
3921;DHT22;1975;49.356;6.816;2023-05-20T11:04:10;17.50;99.90
3921;DHT22;1975;49.356;6.816;2023-05-20T11:06:37;17.50;99.90
3921;DHT22;1975;49.356;6.816;2023-05-20T11:09:03;17.50;99.90
3921;DHT22;1975;49.356;6.816;2023-05-20T11:11:30;17.50;99.90
3921;DHT22;1975;49.356;6.816;2023-05-20T11:13:56;17.60;99.90
3921;DHT22;1975;49.356;6.816;2023-05-20T11:16:21;17.60;99.90
3921;DHT22;1975;49.356;6.816;2023-05-20T11:18:47;17.60;99.90
3921;DHT22;1975;49.356;6.816;2023-05-20T11:21:13;17.60;99.90
3921;DHT22;1975;49.356;6.816;2023-05-20T11:23:38;17.70;99.90
3921;DHT22;1975;49.356;6.816;2023-05-20T11:26:04;17.70;99.90
3921;DHT22;1975;49.356;6.816;2023-05-20T11:28:30;17.70;99.90
3921;DHT22;1975;49.356;6.816;2023-05-20T11:30:58;17.70;99.90
3921;DHT22;1975;49.356;6.816;2023-05-20T11:33:24;17.70;99.90
3921;DHT22;1975;49.356;6.816;2023-05-20T11:35:51;17.70;99.90
3921;DHT22;1975;49.356;6.816;2023-05-20T11:38:17;17.80;99.90
3921;DHT22;1975;49.356;6.816;2023-05-20T11:40:43;17.80;99.90
3921;DHT22;1975;49.356;6.816;2023-05-20T11:43:10;17.80;99.90
3921;DHT22;1975;49.356;6.816;2023-05-20T11:45:39;17.80;99.90
3921;DHT22;1975;49.356;6.816;2023-05-20T11:48:06;17.80;99.90
3921;DHT22;1975;49.356;6.816;2023-05-20T11:50:35;17.90;99.90
3921;DHT22;1975;49.356;6.816;2023-05-20T11:53:08;17.90;99.90
3921;DHT22;1975;49.356;6.816;2023-05-20T11:55:42;17.90;99.90
3921;DHT22;1975;49.356;6.816;2023-05-20T11:58:08;17.90;99.90
3921;DHT22;1975;49.356;6.816;2023-05-20T12:00:34;17.90;99.90
3921;DHT22;1975;49.356;6.816;2023-05-20T12:02:59;17.90;99.90
3921;DHT22;1975;49.356;6.816;2023-05-20T12:05:25;17.90;99.90
3921;DHT22;1975;49.356;6.816;2023-05-20T12:07:50;17.90;99.90
3921;DHT22;1975;49.356;6.816;2023-05-20T12:10:16;17.90;99.90
3921;DHT22;1975;49.356;6.816;2023-05-20T12:12:42;17.90;99.90
3921;DHT22;1975;49.356;6.816;2023-05-20T12:15:09;17.90;99.90
3921;DHT22;1975;49.356;6.816;2023-05-20T12:17:43;17.80;99.90
3921;DHT22;1975;49.356;6.816;2023-05-20T12:20:08;17.80;99.90
3921;DHT22;1975;49.356;6.816;2023-05-20T12:22:34;17.80;99.90
3921;DHT22;1975;49.356;6.816;2023-05-20T12:24:59;17.90;99.90
3921;DHT22;1975;49.356;6.816;2023-05-20T12:27:25;17.90;99.90
3921;DHT22;1975;49.356;6.816;2023-05-20T12:29:50;17.90;99.90
3921;DHT22;1975;49.356;6.816;2023-05-20T12:32:16;18.00;99.90
3921;DHT22;1975;49.356;6.816;2023-05-20T12:34:41;18.00;99.90
3921;DHT22;1975;49.356;6.816;2023-05-20T12:37:07;18.00;99.90
3921;DHT22;1975;49.356;6.816;2023-05-20T12:39:32;18.00;99.90
3921;DHT22;1975;49.356;6.816;2023-05-20T12:41:58;18.00;99.90
3921;DHT22;1975;49.356;6.816;2023-05-20T12:44:23;18.00;99.90
3921;DHT22;1975;49.356;6.816;2023-05-20T12:46:48;18.00;99.90
3921;DHT22;1975;49.356;6.816;2023-05-20T12:49:14;18.00;99.90
3921;DHT22;1975;49.356;6.816;2023-05-20T12:51:39;18.00;99.90
3921;DHT22;1975;49.356;6.816;2023-05-20T12:54:05;18.00;99.90
3921;DHT22;1975;49.356;6.816;2023-05-20T12:56:31;18.00;99.90
3921;DHT22;1975;49.356;6.816;2023-05-20T12:58:56;18.00;99.90
3921;DHT22;1975;49.356;6.816;2023-05-20T13:01:22;18.10;99.90
3921;DHT22;1975;49.356;6.816;2023-05-20T13:03:47;18.10;99.90
3921;DHT22;1975;49.356;6.816;2023-05-20T13:06:17;18.10;99.90
3921;DHT22;1975;49.356;6.816;2023-05-20T13:08:42;18.10;99.90
3921;DHT22;1975;49.356;6.816;2023-05-20T13:11:09;18.10;99.90
3921;DHT22;1975;49.356;6.816;2023-05-20T13:13:35;18.10;99.90
3921;DHT22;1975;49.356;6.816;2023-05-20T13:16:00;18.10;99.90
3921;DHT22;1975;49.356;6.816;2023-05-20T13:18:26;18.10;99.90
3921;DHT22;1975;49.356;6.816;2023-05-20T13:20:52;18.10;99.90
3921;DHT22;1975;49.356;6.816;2023-05-20T13:23:17;18.10;99.90
3921;DHT22;1975;49.356;6.816;2023-05-20T13:25:43;18.10;99.90
3921;DHT22;1975;49.356;6.816;2023-05-20T13:28:08;18.10;99.90
3921;DHT22;1975;49.356;6.816;2023-05-20T13:30:34;18.10;99.90
3921;DHT22;1975;49.356;6.816;2023-05-20T13:33:00;18.10;99.90
3921;DHT22;1975;49.356;6.816;2023-05-20T13:35:25;18.10;99.90
3921;DHT22;1975;49.356;6.816;2023-05-20T13:37:51;18.10;99.90
3921;DHT22;1975;49.356;6.816;2023-05-20T13:40:16;18.10;99.90
3921;DHT22;1975;49.356;6.816;2023-05-20T13:42:42;18.10;99.90
3921;DHT22;1975;49.356;6.816;2023-05-20T13:45:08;18.10;99.90
3921;DHT22;1975;49.356;6.816;2023-05-20T13:47:34;18.10;99.90
3921;DHT22;1975;49.356;6.816;2023-05-20T13:49:59;18.10;99.90
3921;DHT22;1975;49.356;6.816;2023-05-20T13:52:24;18.20;99.90
3921;DHT22;1975;49.356;6.816;2023-05-20T13:54:50;18.20;99.90
3921;DHT22;1975;49.356;6.816;2023-05-20T13:57:15;18.20;99.90
3921;DHT22;1975;49.356;6.816;2023-05-20T13:59:41;18.20;99.90
3921;DHT22;1975;49.356;6.816;2023-05-20T14:02:06;18.20;99.90
3921;DHT22;1975;49.356;6.816;2023-05-20T14:04:32;18.20;99.90
3921;DHT22;1975;49.356;6.816;2023-05-20T14:07:06;18.20;99.90
3921;DHT22;1975;49.356;6.816;2023-05-20T14:09:32;18.30;99.90
3921;DHT22;1975;49.356;6.816;2023-05-20T14:11:57;18.30;99.90
3921;DHT22;1975;49.356;6.816;2023-05-20T14:14:23;18.40;99.90
3921;DHT22;1975;49.356;6.816;2023-05-20T14:16:48;18.40;99.90
3921;DHT22;1975;49.356;6.816;2023-05-20T14:19:14;18.40;99.90
3921;DHT22;1975;49.356;6.816;2023-05-20T14:21:39;18.40;99.90
3921;DHT22;1975;49.356;6.816;2023-05-20T14:24:05;18.40;99.90
3921;DHT22;1975;49.356;6.816;2023-05-20T14:26:31;18.40;99.90
3921;DHT22;1975;49.356;6.816;2023-05-20T14:28:57;18.30;99.90
3921;DHT22;1975;49.356;6.816;2023-05-20T14:31:22;18.30;99.90
3921;DHT22;1975;49.356;6.816;2023-05-20T14:33:48;18.40;99.90
3921;DHT22;1975;49.356;6.816;2023-05-20T14:36:13;18.40;99.90
3921;DHT22;1975;49.356;6.816;2023-05-20T14:38:39;18.40;99.90
3921;DHT22;1975;49.356;6.816;2023-05-20T14:41:04;18.40;99.90
3921;DHT22;1975;49.356;6.816;2023-05-20T14:43:30;18.40;99.90
3921;DHT22;1975;49.356;6.816;2023-05-20T14:45:56;18.40;99.90
3921;DHT22;1975;49.356;6.816;2023-05-20T14:48:21;18.50;99.90
3921;DHT22;1975;49.356;6.816;2023-05-20T14:50:47;18.50;99.90
3921;DHT22;1975;49.356;6.816;2023-05-20T14:53:12;18.50;99.90
3921;DHT22;1975;49.356;6.816;2023-05-20T14:55:38;18.40;99.90
3921;DHT22;1975;49.356;6.816;2023-05-20T14:58:03;18.50;99.90
3921;DHT22;1975;49.356;6.816;2023-05-20T15:00:29;18.40;99.90
3921;DHT22;1975;49.356;6.816;2023-05-20T15:02:54;18.50;99.90
3921;DHT22;1975;49.356;6.816;2023-05-20T15:05:19;18.50;99.90
3921;DHT22;1975;49.356;6.816;2023-05-20T15:07:45;18.50;99.90
3921;DHT22;1975;49.356;6.816;2023-05-20T15:10:10;18.50;99.90
3921;DHT22;1975;49.356;6.816;2023-05-20T15:12:36;18.50;99.90
3921;DHT22;1975;49.356;6.816;2023-05-20T15:15:01;18.50;99.90
3921;DHT22;1975;49.356;6.816;2023-05-20T15:17:27;18.50;99.90
3921;DHT22;1975;49.356;6.816;2023-05-20T15:19:52;18.50;99.90
3921;DHT22;1975;49.356;6.816;2023-05-20T15:22:18;18.50;99.90
3921;DHT22;1975;49.356;6.816;2023-05-20T15:24:43;18.50;99.90
3921;DHT22;1975;49.356;6.816;2023-05-20T15:27:09;18.60;99.90
3921;DHT22;1975;49.356;6.816;2023-05-20T15:29:34;18.60;99.90
3921;DHT22;1975;49.356;6.816;2023-05-20T15:32:00;18.60;99.90
3921;DHT22;1975;49.356;6.816;2023-05-20T15:34:25;18.60;99.90
3921;DHT22;1975;49.356;6.816;2023-05-20T15:36:51;18.60;99.90
3921;DHT22;1975;49.356;6.816;2023-05-20T15:39:16;18.60;99.90
3921;DHT22;1975;49.356;6.816;2023-05-20T15:41:42;18.50;99.90
3921;DHT22;1975;49.356;6.816;2023-05-20T15:44:07;18.50;99.90
3921;DHT22;1975;49.356;6.816;2023-05-20T15:46:33;18.60;99.90
3921;DHT22;1975;49.356;6.816;2023-05-20T15:48:58;18.60;99.90
3921;DHT22;1975;49.356;6.816;2023-05-20T15:51:24;18.60;99.90
3921;DHT22;1975;49.356;6.816;2023-05-20T15:53:50;18.60;99.90
3921;DHT22;1975;49.356;6.816;2023-05-20T15:56:15;18.60;99.90
3921;DHT22;1975;49.356;6.816;2023-05-20T15:58:41;18.60;99.90